Time;durP1;ratioP1;P1;durP2;ratioP2;P2;SDS_P1;SDS_P2;PMS_P1;PMS_P2;Temp;Humidity;BMP_temperature;BMP_pressure;BME280_temperature;BME280_humidity;BME280_pressure;Samples;Min_cycle;Max_cycle;Signal;HPM_P1;HPM_P2
2023/07/14 00:00:08;;;;;;;4.10;3.75;;;;;;;;;;5071864;28;20601;-89
2023/07/14 00:02:35;;;;;;;4.35;4.05;;;;;;;;;;5072721;28;20572;-88
2023/07/14 00:05:02;;;;;;;3.90;3.35;;;;;;;;;;5076516;28;20225;-87
2023/07/14 00:07:29;;;;;;;4.13;3.75;;;;;;;;;;5073171;28;20203;-88
2023/07/14 00:09:57;;;;;;;10.10;4.03;;;;;;;;;;5071490;28;20191;-89
2023/07/14 00:12:24;;;;;;;4.43;4.03;;;;;;;;;;5071357;28;20222;-86
2023/07/14 00:14:53;;;;;;;6.63;3.55;;;;;;;;;;5070935;28;20206;-88
2023/07/14 00:17:19;;;;;;;4.45;4.05;;;;;;;;;;5070975;28;20218;-87
2023/07/14 00:19:47;;;;;;;4.32;3.38;;;;;;;;;;5070718;28;20603;-88
2023/07/14 00:22:15;;;;;;;4.70;4.03;;;;;;;;;;5070865;28;20209;-87
2023/07/14 00:24:42;;;;;;;7.70;3.78;;;;;;;;;;5070532;28;20317;-88
2023/07/14 00:27:18;;;;;;;4.30;3.88;;;;;;;;;;5070677;28;20203;-88
2023/07/14 00:29:45;;;;;;;3.67;3.38;;;;;;;;;;5070312;28;20198;-87
2023/07/14 00:32:17;;;;;;;4.40;4.13;;;;;;;;;;5070878;28;20226;-88
2023/07/14 00:34:44;;;;;;;4.60;3.45;;;;;;;;;;5070132;28;20210;-88
2023/07/14 00:37:12;;;;;;;4.50;3.92;;;;;;;;;;5070178;28;20202;-89
2023/07/14 00:39:38;;;;;;;3.83;3.00;;;;;;;;;;5069956;28;20202;-87
2023/07/14 00:42:07;;;;;;;5.35;4.20;;;;;;;;;;5070429;28;20210;-89
2023/07/14 00:44:35;;;;;;;4.80;3.30;;;;;;;;;;5069847;28;20230;-88
2023/07/14 00:47:01;;;;;;;6.13;3.88;;;;;;;;;;5072616;28;20218;-88
2023/07/14 00:49:33;;;;;;;6.60;4.18;;;;;;;;;;5050961;28;20207;-88
2023/07/14 00:52:03;;;;;;;4.50;4.10;;;;;;;;;;5050034;28;20594;-89
2023/07/14 00:54:30;;;;;;;4.20;3.50;;;;;;;;;;5052795;28;20203;-88
2023/07/14 00:56:58;;;;;;;3.78;3.40;;;;;;;;;;5054590;28;20191;-89
2023/07/14 00:59:29;;;;;;;3.88;3.58;;;;;;;;;;5055116;28;20310;-88
2023/07/14 01:02:23;;;;;;;7.43;4.80;;;;;;;;;;5054484;28;20752;-89
2023/07/14 01:04:53;;;;;;;4.57;3.90;;;;;;;;;;5019137;28;20314;-89
2023/07/14 01:07:22;;;;;;;8.27;4.80;;;;;;;;;;5060543;28;20188;-89
2023/07/14 01:09:49;;;;;;;13.20;4.45;;;;;;;;;;5062002;28;20195;-87
2023/07/14 01:12:20;;;;;;;4.03;3.83;;;;;;;;;;5077233;28;20279;-88
2023/07/14 01:14:48;;;;;;;4.32;3.92;;;;;;;;;;5071729;28;20764;-88
2023/07/14 01:17:16;;;;;;;5.82;4.63;;;;;;;;;;5054824;28;20192;-87
2023/07/14 01:19:45;;;;;;;5.60;4.05;;;;;;;;;;5054321;28;20227;-88
2023/07/14 01:22:17;;;;;;;4.25;3.92;;;;;;;;;;5054198;28;20203;-87
2023/07/14 01:24:48;;;;;;;5.32;4.85;;;;;;;;;;5054228;28;20787;-88
2023/07/14 01:27:17;;;;;;;5.13;4.00;;;;;;;;;;5055099;28;20560;-88
2023/07/14 01:29:46;;;;;;;5.13;4.72;;;;;;;;;;5055692;28;20195;-89
2023/07/14 01:32:16;;;;;;;5.63;4.97;;;;;;;;;;5055978;28;20207;-89
2023/07/14 01:34:44;;;;;;;5.82;4.18;;;;;;;;;;5057325;28;20222;-88
2023/07/14 01:37:11;;;;;;;6.22;3.97;;;;;;;;;;5059476;28;20204;-87
2023/07/14 01:39:40;;;;;;;5.05;4.30;;;;;;;;;;5063368;28;20681;-86
2023/07/14 01:42:08;;;;;;;4.80;4.40;;;;;;;;;;5070493;28;20261;-89
2023/07/14 01:44:37;;;;;;;6.80;5.07;;;;;;;;;;5065945;28;20284;-89
2023/07/14 01:47:05;;;;;;;6.68;4.93;;;;;;;;;;5064011;28;20199;-88
2023/07/14 01:49:36;;;;;;;10.20;4.43;;;;;;;;;;5082669;28;20208;-87
2023/07/14 01:52:07;;;;;;;4.72;4.32;;;;;;;;;;5085307;28;20195;-89
2023/07/14 01:54:37;;;;;;;5.47;4.13;;;;;;;;;;5081746;28;20191;-88
2023/07/14 01:57:08;;;;;;;10.38;4.35;;;;;;;;;;5087275;28;20221;-88
2023/07/14 01:59:38;;;;;;;4.78;4.35;;;;;;;;;;5085386;28;20203;-88
2023/07/14 02:02:09;;;;;;;8.32;4.32;;;;;;;;;;5079836;28;20199;-88
2023/07/14 02:04:38;;;;;;;6.82;4.32;;;;;;;;;;5074250;28;20231;-87
2023/07/14 02:07:05;;;;;;;5.45;4.85;;;;;;;;;;5074690;28;20719;-88
2023/07/14 02:09:33;;;;;;;6.72;5.07;;;;;;;;;;5075157;28;20199;-88
2023/07/14 02:12:01;;;;;;;5.22;4.65;;;;;;;;;;5074306;28;20219;-89
2023/07/14 02:14:29;;;;;;;7.82;5.00;;;;;;;;;;5074716;28;20199;-89
2023/07/14 02:17:00;;;;;;;5.53;4.75;;;;;;;;;;5074817;28;20282;-89
2023/07/14 02:19:27;;;;;;;5.55;4.57;;;;;;;;;;5074517;28;20198;-87
2023/07/14 02:21:55;;;;;;;7.72;4.72;;;;;;;;;;5074709;28;20215;-88
2023/07/14 02:24:24;;;;;;;8.45;5.22;;;;;;;;;;5073288;28;20316;-89
2023/07/14 02:26:56;;;;;;;6.50;5.20;;;;;;;;;;5073059;28;20198;-88
2023/07/14 02:29:23;;;;;;;5.38;4.63;;;;;;;;;;5072670;28;20222;-89
2023/07/14 02:31:52;;;;;;;8.82;4.70;;;;;;;;;;5072584;28;20253;-88
2023/07/14 02:34:20;;;;;;;4.55;4.15;;;;;;;;;;5072498;28;20202;-88
2023/07/14 02:36:58;;;;;;;4.80;4.32;;;;;;;;;;5072882;28;20749;-88
2023/07/14 02:39:25;;;;;;;5.00;4.45;;;;;;;;;;5072680;28;20203;-88
2023/07/14 02:41:55;;;;;;;6.82;5.07;;;;;;;;;;5072180;28;20652;-88
2023/07/14 02:44:26;;;;;;;6.22;4.75;;;;;;;;;;5072763;28;20237;-87
2023/07/14 02:46:56;;;;;;;5.25;4.85;;;;;;;;;;5072191;28;20218;-88
2023/07/14 02:49:25;;;;;;;6.30;4.03;;;;;;;;;;5072324;28;20703;-89
2023/07/14 02:51:51;;;;;;;8.05;4.57;;;;;;;;;;5072403;28;20639;-87
2023/07/14 02:54:18;;;;;;;4.90;4.55;;;;;;;;;;5072154;28;20207;-89
2023/07/14 02:56:45;;;;;;;5.57;3.88;;;;;;;;;;5071798;28;20207;-86
2023/07/14 02:59:13;;;;;;;5.90;3.92;;;;;;;;;;5071971;28;20198;-88
2023/07/14 03:01:40;;;;;;;7.05;4.72;;;;;;;;;;5071922;28;20207;-88
2023/07/14 03:04:09;;;;;;;5.30;4.78;;;;;;;;;;5072516;28;20256;-87
2023/07/14 03:06:37;;;;;;;5.82;3.92;;;;;;;;;;5071630;28;20198;-88
2023/07/14 03:09:04;;;;;;;7.57;3.70;;;;;;;;;;5071691;28;20199;-87
2023/07/14 03:11:31;;;;;;;4.30;3.60;;;;;;;;;;5071691;28;20237;-88
2023/07/14 03:14:02;;;;;;;4.32;4.03;;;;;;;;;;5071617;28;20199;-88
2023/07/14 03:16:30;;;;;;;4.75;3.88;;;;;;;;;;5071398;28;20195;-88
2023/07/14 03:18:57;;;;;;;4.55;3.85;;;;;;;;;;5071434;28;20283;-88
2023/07/14 03:21:24;;;;;;;9.70;3.80;;;;;;;;;;5071616;28;20206;-87
2023/07/14 03:23:53;;;;;;;4.90;3.75;;;;;;;;;;5071383;28;20222;-90
2023/07/14 03:26:19;;;;;;;6.82;4.22;;;;;;;;;;5071687;28;20246;-88
2023/07/14 03:28:46;;;;;;;4.82;3.65;;;;;;;;;;5071353;28;20616;-87
2023/07/14 03:31:13;;;;;;;4.50;4.20;;;;;;;;;;5070906;28;20567;-88
2023/07/14 03:33:40;;;;;;;4.70;3.85;;;;;;;;;;5070958;28;20293;-89
2023/07/14 03:36:09;;;;;;;5.97;4.00;;;;;;;;;;5071039;28;20197;-88
2023/07/14 03:38:42;;;;;;;5.97;3.47;;;;;;;;;;5071008;28;20203;-88
2023/07/14 03:41:11;;;;;;;4.18;3.83;;;;;;;;;;5071300;28;20198;-90
2023/07/14 03:43:38;;;;;;;5.00;3.58;;;;;;;;;;5070975;28;20198;-87
2023/07/14 03:46:06;;;;;;;5.95;4.18;;;;;;;;;;5070445;28;20305;-88
2023/07/14 03:48:34;;;;;;;4.50;3.80;;;;;;;;;;5071180;28;20230;-88
2023/07/14 03:51:01;;;;;;;4.38;3.83;;;;;;;;;;5072067;28;20217;-88
2023/07/14 03:53:29;;;;;;;6.15;3.92;;;;;;;;;;5071736;28;20195;-89
2023/07/14 03:55:57;;;;;;;4.35;3.95;;;;;;;;;;5071483;28;20203;-88
2023/07/14 03:58:27;;;;;;;7.95;3.97;;;;;;;;;;5071274;28;20362;-87
2023/07/14 04:01:00;;;;;;;9.77;5.22;;;;;;;;;;5071292;28;20286;-88
2023/07/14 04:03:26;;;;;;;4.45;4.03;;;;;;;;;;5071517;28;20190;-87
2023/07/14 04:05:55;;;;;;;4.63;4.15;;;;;;;;;;5071017;28;20261;-88
2023/07/14 04:08:27;;;;;;;10.40;4.35;;;;;;;;;;5070814;28;20195;-88
2023/07/14 04:10:55;;;;;;;7.50;4.07;;;;;;;;;;5071064;28;20621;-89
2023/07/14 04:13:23;;;;;;;9.10;4.75;;;;;;;;;;5070530;28;20280;-88
2023/07/14 04:16:00;;;;;;;9.35;4.75;;;;;;;;;;5071068;28;20227;-89
2023/07/14 04:18:27;;;;;;;8.85;5.75;;;;;;;;;;5070899;28;20198;-88
2023/07/14 04:20:55;;;;;;;6.35;4.45;;;;;;;;;;5070914;28;20244;-88
2023/07/14 04:23:23;;;;;;;7.82;4.93;;;;;;;;;;5070800;28;20267;-87
2023/07/14 04:25:50;;;;;;;8.05;4.47;;;;;;;;;;5070263;28;20226;-87
2023/07/14 04:28:17;;;;;;;7.63;4.20;;;;;;;;;;5070075;28;20294;-88
2023/07/14 04:30:53;;;;;;;9.07;5.22;;;;;;;;;;5070048;28;20202;-87
2023/07/14 04:33:22;;;;;;;4.65;4.00;;;;;;;;;;5070735;28;20182;-88
2023/07/14 04:35:50;;;;;;;6.38;4.30;;;;;;;;;;5071746;28;20201;-87
2023/07/14 04:38:17;;;;;;;9.20;4.63;;;;;;;;;;5078257;28;20286;-88
2023/07/14 04:40:44;;;;;;;5.35;3.75;;;;;;;;;;5081072;28;20202;-88
2023/07/14 04:43:12;;;;;;;5.43;4.70;;;;;;;;;;5088137;28;20208;-87
2023/07/14 04:45:40;;;;;;;6.03;4.97;;;;;;;;;;5091148;28;20238;-88
2023/07/14 04:48:07;;;;;;;5.07;4.20;;;;;;;;;;5077720;28;20723;-89
2023/07/14 04:50:37;;;;;;;5.72;4.57;;;;;;;;;;5074834;28;20304;-89
2023/07/14 04:53:05;;;;;;;5.05;4.38;;;;;;;;;;5074105;28;20298;-87
2023/07/14 04:55:32;;;;;;;5.72;5.10;;;;;;;;;;5072094;28;20531;-87
2023/07/14 04:58:01;;;;;;;12.00;9.05;;;;;;;;;;5071245;28;20201;-88
2023/07/14 05:00:27;;;;;;;8.30;5.38;;;;;;;;;;5071469;28;20198;-88
2023/07/14 05:02:56;;;;;;;6.32;4.28;;;;;;;;;;5070190;28;20202;-88
2023/07/14 05:05:23;;;;;;;5.68;5.18;;;;;;;;;;5069837;28;20226;-89
2023/07/14 05:07:52;;;;;;;10.10;4.68;;;;;;;;;;5069743;28;20760;-88
2023/07/14 05:10:20;;;;;;;11.32;4.88;;;;;;;;;;5070395;28;20290;-88
2023/07/14 05:12:47;;;;;;;5.18;4.78;;;;;;;;;;5070170;28;20241;-87
2023/07/14 05:15:14;;;;;;;5.05;4.63;;;;;;;;;;5070339;28;20236;-87
2023/07/14 05:17:42;;;;;;;7.60;4.60;;;;;;;;;;5070105;28;20209;-87
2023/07/14 05:20:14;;;;;;;6.95;4.80;;;;;;;;;;5070571;28;20292;-89
2023/07/14 05:22:42;;;;;;;5.15;4.65;;;;;;;;;;5070458;28;20202;-88
2023/07/14 05:25:11;;;;;;;4.80;4.35;;;;;;;;;;5070921;28;20291;-87
2023/07/14 05:27:39;;;;;;;5.78;5.25;;;;;;;;;;5070153;28;20190;-89
2023/07/14 05:30:09;;;;;;;6.78;5.13;;;;;;;;;;5070735;28;20612;-89
2023/07/14 05:32:35;;;;;;;6.93;4.75;;;;;;;;;;5078843;28;20208;-88
2023/07/14 05:35:02;;;;;;;5.38;4.85;;;;;;;;;;5070711;28;20202;-88
2023/07/14 05:37:29;;;;;;;5.70;4.78;;;;;;;;;;5070388;28;20236;-88
2023/07/14 05:39:57;;;;;;;7.55;4.45;;;;;;;;;;5072922;28;20252;-88
2023/07/14 05:42:25;;;;;;;4.75;4.45;;;;;;;;;;5073582;28;20214;-88
2023/07/14 05:44:55;;;;;;;8.68;4.20;;;;;;;;;;5073393;28;20194;-88
2023/07/14 05:47:24;;;;;;;6.20;4.85;;;;;;;;;;5074361;28;20247;-89
2023/07/14 05:49:52;;;;;;;5.35;4.57;;;;;;;;;;5074073;28;20727;-89
2023/07/14 05:52:20;;;;;;;6.82;4.30;;;;;;;;;;5073847;28;20392;-88
2023/07/14 05:54:48;;;;;;;5.20;4.68;;;;;;;;;;5074976;28;20209;-88
2023/07/14 05:57:16;;;;;;;7.32;4.68;;;;;;;;;;5074755;28;20201;-89
2023/07/14 06:02:29;;;;;;;7.53;4.43;;;;;;;;;;5058876;28;20201;-87
2023/07/14 06:04:57;;;;;;;9.05;5.03;;;;;;;;;;5073739;28;20274;-90
2023/07/14 06:07:26;;;;;;;4.57;4.18;;;;;;;;;;5073420;28;20190;-88
2023/07/14 06:09:54;;;;;;;5.50;4.97;;;;;;;;;;5073446;28;20224;-88
2023/07/14 06:12:21;;;;;;;4.55;4.25;;;;;;;;;;5073321;28;20733;-87
2023/07/14 06:14:50;;;;;;;7.68;4.82;;;;;;;;;;5074023;28;20206;-88
2023/07/14 06:17:18;;;;;;;4.60;4.30;;;;;;;;;;5074114;28;20586;-89
2023/07/14 06:19:45;;;;;;;4.60;4.15;;;;;;;;;;5074245;28;20280;-89
2023/07/14 06:22:14;;;;;;;5.57;4.82;;;;;;;;;;5073517;28;20202;-89
2023/07/14 06:24:42;;;;;;;5.25;4.70;;;;;;;;;;5073459;28;20538;-87
2023/07/14 06:27:10;;;;;;;5.43;4.88;;;;;;;;;;5073516;28;20218;-88
2023/07/14 06:29:38;;;;;;;5.18;4.78;;;;;;;;;;5073348;28;20198;-88
2023/07/14 06:32:08;;;;;;;5.22;4.80;;;;;;;;;;5072715;28;20212;-87
2023/07/14 06:34:35;;;;;;;4.47;4.00;;;;;;;;;;5073043;28;20198;-88
2023/07/14 06:37:05;;;;;;;4.22;3.92;;;;;;;;;;5073778;28;20209;-88
2023/07/14 06:39:33;;;;;;;8.48;4.85;;;;;;;;;;5072840;28;20206;-88
2023/07/14 06:42:04;;;;;;;6.45;4.78;;;;;;;;;;5072853;28;20663;-87
2023/07/14 06:44:32;;;;;;;4.88;4.53;;;;;;;;;;5073316;28;20281;-87
2023/07/14 06:47:02;;;;;;;12.35;4.95;;;;;;;;;;5073009;28;20231;-87
2023/07/14 06:49:30;;;;;;;5.28;4.82;;;;;;;;;;5073004;28;20287;-87
2023/07/14 06:52:05;;;;;;;6.95;4.93;;;;;;;;;;5072049;28;20659;-88
2023/07/14 06:54:32;;;;;;;5.07;4.65;;;;;;;;;;5072929;28;20189;-88
2023/07/14 06:57:00;;;;;;;6.63;4.53;;;;;;;;;;5072543;28;20190;-89
2023/07/14 06:59:28;;;;;;;9.30;4.45;;;;;;;;;;5072879;28;20196;-89
2023/07/14 07:01:56;;;;;;;6.13;4.70;;;;;;;;;;5072369;28;20228;-86
2023/07/14 07:04:23;;;;;;;5.70;5.20;;;;;;;;;;5073015;28;20209;-88
2023/07/14 07:06:53;;;;;;;5.90;4.32;;;;;;;;;;5072397;28;20264;-85
2023/07/14 07:09:20;;;;;;;5.25;4.85;;;;;;;;;;5072786;28;20659;-88
2023/07/14 07:11:47;;;;;;;7.05;4.82;;;;;;;;;;5074499;28;20237;-87
2023/07/14 07:14:14;;;;;;;5.20;4.75;;;;;;;;;;5074112;28;20198;-87
2023/07/14 07:16:58;;;;;;;7.43;5.05;;;;;;;;;;5115605;27;20574;-86
2023/07/14 07:19:25;;;;;;;4.20;3.92;;;;;;;;;;5129881;28;20197;-84
2023/07/14 07:21:53;;;;;;;5.30;4.88;;;;;;;;;;5125049;28;20232;-86
2023/07/14 07:24:19;;;;;;;5.85;5.10;;;;;;;;;;5121705;28;20197;-85
2023/07/14 07:26:46;;;;;;;4.85;4.40;;;;;;;;;;5118877;28;20674;-87
2023/07/14 07:29:14;;;;;;;5.25;4.82;;;;;;;;;;5117719;28;20269;-87
2023/07/14 07:31:41;;;;;;;7.82;4.50;;;;;;;;;;5117858;28;20284;-86
2023/07/14 07:34:09;;;;;;;9.85;5.00;;;;;;;;;;5117455;28;20586;-87
2023/07/14 07:36:37;;;;;;;10.05;4.80;;;;;;;;;;5107806;28;20251;-85
2023/07/14 07:39:04;;;;;;;4.47;4.18;;;;;;;;;;5107724;28;20224;-88
2023/07/14 07:41:31;;;;;;;5.53;4.82;;;;;;;;;;5108217;28;20197;-87
2023/07/14 07:43:58;;;;;;;4.85;4.55;;;;;;;;;;5107624;28;20234;-87
2023/07/14 07:46:27;;;;;;;7.35;5.05;;;;;;;;;;5108508;28;20684;-89
2023/07/14 07:48:56;;;;;;;6.68;4.93;;;;;;;;;;5107829;28;20642;-87
2023/07/14 07:51:24;;;;;;;4.53;4.22;;;;;;;;;;5107809;28;20204;-87
2023/07/14 07:53:52;;;;;;;5.00;4.63;;;;;;;;;;5107239;28;20281;-87
2023/07/14 07:56:19;;;;;;;4.53;4.13;;;;;;;;;;5107281;28;20228;-87
2023/07/14 08:04:59;;;;;;;5.80;5.28;;;;;;;;;;5099502;28;20654;-86
2023/07/14 08:07:29;;;;;;;4.95;4.55;;;;;;;;;;5107658;28;20231;-88
2023/07/14 08:09:57;;;;;;;5.38;4.45;;;;;;;;;;5108902;28;20193;-87
2023/07/14 08:12:25;;;;;;;5.32;4.85;;;;;;;;;;5097880;28;20210;-88
2023/07/14 08:14:53;;;;;;;4.97;4.57;;;;;;;;;;5088160;28;20237;-86
2023/07/14 08:17:23;;;;;;;5.50;5.00;;;;;;;;;;5102510;28;20238;-87
2023/07/14 08:19:50;;;;;;;6.05;5.45;;;;;;;;;;5103403;28;20200;-87
2023/07/14 08:22:18;;;;;;;5.22;4.78;;;;;;;;;;5088422;28;20190;-86
2023/07/14 08:24:47;;;;;;;7.25;4.88;;;;;;;;;;5087203;28;20752;-85
2023/07/14 08:27:15;;;;;;;5.70;5.15;;;;;;;;;;5079678;28;20194;-86
2023/07/14 08:29:45;;;;;;;5.88;5.13;;;;;;;;;;5077513;28;20258;-86
2023/07/14 08:32:15;;;;;;;4.65;4.30;;;;;;;;;;5076620;28;20194;-87
2023/07/14 08:34:44;;;;;;;4.55;4.13;;;;;;;;;;5073685;28;20194;-86
2023/07/14 08:37:14;;;;;;;5.60;5.10;;;;;;;;;;5073252;28;20241;-87
2023/07/14 08:39:41;;;;;;;7.05;5.10;;;;;;;;;;5072757;28;20191;-87
2023/07/14 08:42:23;;;;;;;4.95;4.55;;;;;;;;;;5085854;28;20202;-88
2023/07/14 08:45:03;;;;;;;6.70;4.20;;;;;;;;;;5077181;28;20204;-88
2023/07/14 08:47:34;;;;;;;4.95;4.60;;;;;;;;;;5077479;28;20220;-86
2023/07/14 08:50:03;;;;;;;7.03;4.35;;;;;;;;;;5076169;28;20269;-86
2023/07/14 08:52:33;;;;;;;6.75;5.20;;;;;;;;;;5075104;28;20289;-87
2023/07/14 08:55:01;;;;;;;4.45;4.00;;;;;;;;;;5074892;28;20422;-87
2023/07/14 08:57:44;;;;;;;5.55;5.03;;;;;;;;;;5075683;28;20198;-86
2023/07/14 09:00:17;;;;;;;8.50;4.85;;;;;;;;;;5074863;28;20564;-88
2023/07/14 09:02:46;;;;;;;5.10;4.80;;;;;;;;;;5074815;28;20248;-86
2023/07/14 09:05:18;;;;;;;5.50;4.97;;;;;;;;;;5075037;28;20206;-86
2023/07/14 09:07:46;;;;;;;6.10;5.60;;;;;;;;;;5074940;28;20634;-88
2023/07/14 09:10:17;;;;;;;6.55;4.75;;;;;;;;;;5076220;28;20634;-86
2023/07/14 09:12:49;;;;;;;6.18;5.03;;;;;;;;;;5077157;28;20356;-87
2023/07/14 09:15:21;;;;;;;9.45;5.43;;;;;;;;;;5077478;28;20264;-88
2023/07/14 09:17:52;;;;;;;7.97;4.85;;;;;;;;;;5076175;28;20239;-88
2023/07/14 09:20:33;;;;;;;8.23;4.85;;;;;;;;;;5076416;28;20198;-88
2023/07/14 09:23:08;;;;;;;5.40;4.88;;;;;;;;;;5063147;28;20663;-87
2023/07/14 09:25:42;;;;;;;5.55;5.00;;;;;;;;;;5075374;28;20243;-88
2023/07/14 09:28:15;;;;;;;6.03;4.45;;;;;;;;;;5075796;28;20355;-87
2023/07/14 09:30:45;;;;;;;6.20;4.60;;;;;;;;;;5055061;28;20211;-87
2023/07/14 09:33:14;;;;;;;6.15;5.43;;;;;;;;;;5053663;28;20261;-87
2023/07/14 09:35:45;;;;;;;5.88;4.97;;;;;;;;;;5054839;28;20300;-85
2023/07/14 09:38:16;;;;;;;13.20;6.00;;;;;;;;;;5053417;28;20704;-87
2023/07/14 09:40:46;;;;;;;5.43;5.03;;;;;;;;;;5053560;28;20223;-86
2023/07/14 09:43:15;;;;;;;7.30;5.07;;;;;;;;;;5054885;28;20794;-86
2023/07/14 09:45:44;;;;;;;5.97;5.50;;;;;;;;;;5054241;28;20588;-87
2023/07/14 09:48:25;;;;;;;8.77;5.45;;;;;;;;;;5054353;28;20199;-87
2023/07/14 09:50:55;;;;;;;7.30;5.03;;;;;;;;;;5054551;28;20199;-87
2023/07/14 09:53:25;;;;;;;5.70;5.30;;;;;;;;;;5054923;28;20640;-86
2023/07/14 09:55:53;;;;;;;5.50;4.97;;;;;;;;;;5057102;28;20237;-86
2023/07/14 09:58:24;;;;;;;7.93;5.50;;;;;;;;;;5059484;28;20213;-86
2023/07/14 10:00:54;;;;;;;5.70;5.15;;;;;;;;;;5058831;28;20202;-87
2023/07/14 10:03:25;;;;;;;8.07;5.68;;;;;;;;;;5067828;28;20195;-85
2023/07/14 10:05:55;;;;;;;8.32;5.50;;;;;;;;;;5074457;28;20217;-86
2023/07/14 10:08:29;;;;;;;5.60;4.90;;;;;;;;;;5065379;28;20672;-86
2023/07/14 10:10:57;;;;;;;9.40;5.07;;;;;;;;;;5054500;28;20207;-87
2023/07/14 10:13:27;;;;;;;6.28;5.15;;;;;;;;;;5054636;28;20269;-86
2023/07/14 10:15:57;;;;;;;7.35;5.30;;;;;;;;;;5055715;28;20292;-86
2023/07/14 10:18:24;;;;;;;7.97;5.63;;;;;;;;;;5055377;28;20194;-87
2023/07/14 10:21:05;;;;;;;6.93;5.70;;;;;;;;;;5055671;28;20206;-87
2023/07/14 10:23:32;;;;;;;8.70;5.25;;;;;;;;;;5056421;28;20215;-87
2023/07/14 10:26:01;;;;;;;10.15;5.63;;;;;;;;;;5056762;28;20203;-86
2023/07/14 10:28:30;;;;;;;9.90;5.47;;;;;;;;;;5056521;28;20199;-86
2023/07/14 10:31:00;;;;;;;6.28;5.70;;;;;;;;;;5056615;28;20195;-86
2023/07/14 10:33:31;;;;;;;8.27;5.95;;;;;;;;;;5055598;28;20605;-87
2023/07/14 10:36:04;;;;;;;6.45;5.72;;;;;;;;;;5056077;28;20242;-88
2023/07/14 10:38:33;;;;;;;6.30;5.72;;;;;;;;;;5055000;28;20215;-86
2023/07/14 10:41:04;;;;;;;6.65;5.40;;;;;;;;;;5052291;28;20581;-87
2023/07/14 10:43:39;;;;;;;5.88;5.32;;;;;;;;;;5055417;28;20286;-85
2023/07/14 10:46:09;;;;;;;7.40;5.18;;;;;;;;;;5055361;28;20605;-86
2023/07/14 10:48:39;;;;;;;7.57;5.40;;;;;;;;;;5054102;28;20233;-85
2023/07/14 10:51:10;;;;;;;9.90;5.32;;;;;;;;;;5052803;28;20188;-86
2023/07/14 10:53:42;;;;;;;6.80;5.20;;;;;;;;;;5052456;28;20272;-87
2023/07/14 10:56:27;;;;;;;8.40;5.35;;;;;;;;;;5052049;28;20245;-87
2023/07/14 10:59:04;;;;;;;5.97;5.38;;;;;;;;;;5051569;28;20679;-85
2023/07/14 11:01:34;;;;;;;6.97;4.95;;;;;;;;;;5053313;28;20191;-86
2023/07/14 11:04:08;;;;;;;6.13;5.47;;;;;;;;;;5052177;28;20261;-88
2023/07/14 11:06:36;;;;;;;8.10;4.72;;;;;;;;;;5052223;28;20203;-87
2023/07/14 11:09:10;;;;;;;8.35;4.82;;;;;;;;;;5052131;28;20249;-87
2023/07/14 11:11:41;;;;;;;6.93;5.80;;;;;;;;;;5055877;28;20219;-86
2023/07/14 11:14:15;;;;;;;4.90;4.47;;;;;;;;;;5056875;28;20648;-86
2023/07/14 11:16:46;;;;;;;7.75;4.82;;;;;;;;;;5053099;28;20242;-86
2023/07/14 11:19:24;;;;;;;9.38;5.20;;;;;;;;;;5054051;28;20599;-86
2023/07/14 11:21:56;;;;;;;6.45;5.82;;;;;;;;;;5051982;28;20695;-87
2023/07/14 11:24:42;;;;;;;6.60;5.03;;;;;;;;;;5058410;28;20242;-86
2023/07/14 11:27:36;;;;;;;10.52;5.43;;;;;;;;;;5059321;28;20202;-86
2023/07/14 11:30:13;;;;;;;10.38;5.25;;;;;;;;;;5055637;28;20206;-86
2023/07/14 11:32:44;;;;;;;5.07;4.38;;;;;;;;;;5058962;28;20218;-87
2023/07/14 11:35:14;;;;;;;4.97;4.32;;;;;;;;;;5057414;28;20201;-86
2023/07/14 11:37:51;;;;;;;6.40;5.18;;;;;;;;;;5056979;28;20308;-87
2023/07/14 11:40:21;;;;;;;7.90;5.15;;;;;;;;;;5057524;28;20230;-86
2023/07/14 11:42:51;;;;;;;7.95;6.10;;;;;;;;;;5060326;28;20203;-86
2023/07/14 11:45:22;;;;;;;5.18;4.72;;;;;;;;;;5067242;28;20203;-85
2023/07/14 11:47:51;;;;;;;6.22;5.18;;;;;;;;;;5068595;28;20195;-86
2023/07/14 11:50:26;;;;;;;5.25;4.85;;;;;;;;;;5064963;28;20233;-88
2023/07/14 11:53:02;;;;;;;8.48;5.22;;;;;;;;;;5063633;28;20202;-86
2023/07/14 11:55:30;;;;;;;7.55;4.88;;;;;;;;;;5061843;28;20206;-86
2023/07/14 11:58:12;;;;;;;9.25;4.63;;;;;;;;;;5062170;28;20688;-86
2023/07/14 12:00:43;;;;;;;6.40;5.80;;;;;;;;;;5061027;28;20199;-86
2023/07/14 12:03:24;;;;;;;9.93;4.72;;;;;;;;;;5061236;28;20730;-86
2023/07/14 12:06:14;;;;;;;7.43;4.97;;;;;;;;;;5059246;28;20227;-86
2023/07/14 12:08:42;;;;;;;5.00;4.40;;;;;;;;;;5056077;28;20241;-86
2023/07/14 12:11:23;;;;;;;8.43;5.72;;;;;;;;;;5053863;28;20199;-86
2023/07/14 12:13:52;;;;;;;6.35;5.13;;;;;;;;;;5054218;28;20264;-85
2023/07/14 12:16:24;;;;;;;4.80;4.38;;;;;;;;;;5054351;28;20245;-85
2023/07/14 12:19:04;;;;;;;4.68;4.32;;;;;;;;;;5054655;28;20536;-86
2023/07/14 12:21:34;;;;;;;6.25;4.78;;;;;;;;;;5053667;28;20315;-86
2023/07/14 12:24:05;;;;;;;4.57;4.18;;;;;;;;;;5054311;28;20198;-85
2023/07/14 12:26:36;;;;;;;4.10;3.70;;;;;;;;;;5053956;28;20183;-85
2023/07/14 12:29:04;;;;;;;5.75;4.47;;;;;;;;;;5053781;28;20203;-86
2023/07/14 12:31:36;;;;;;;8.43;4.68;;;;;;;;;;5053127;28;20282;-87
2023/07/14 12:34:04;;;;;;;8.55;5.35;;;;;;;;;;5053218;28;20203;-86
2023/07/14 12:36:31;;;;;;;5.60;4.85;;;;;;;;;;5052674;28;20231;-86
2023/07/14 12:38:59;;;;;;;9.85;4.55;;;;;;;;;;5053069;28;20213;-84
2023/07/14 12:41:29;;;;;;;4.90;4.43;;;;;;;;;;5052985;28;20246;-86
2023/07/14 12:44:02;;;;;;;8.80;4.93;;;;;;;;;;5053317;28;20248;-86
2023/07/14 12:46:33;;;;;;;4.88;4.47;;;;;;;;;;5053465;28;20233;-84
2023/07/14 12:49:03;;;;;;;9.95;4.95;;;;;;;;;;5052815;28;20193;-86
2023/07/14 12:51:32;;;;;;;11.98;4.85;;;;;;;;;;5053327;28;20264;-85
2023/07/14 12:54:00;;;;;;;7.82;4.90;;;;;;;;;;5052910;28;20596;-86
2023/07/14 12:56:29;;;;;;;6.70;4.57;;;;;;;;;;5052728;28;20230;-86
2023/07/14 12:58:56;;;;;;;8.95;4.93;;;;;;;;;;5052872;28;20210;-87
2023/07/14 13:01:23;;;;;;;7.05;4.45;;;;;;;;;;5052497;28;20579;-86
2023/07/14 13:03:50;;;;;;;8.43;4.65;;;;;;;;;;5052585;28;20245;-86
2023/07/14 13:06:20;;;;;;;5.00;4.55;;;;;;;;;;5051980;28;20672;-87
2023/07/14 13:08:49;;;;;;;7.20;5.05;;;;;;;;;;5053264;28;20206;-86
2023/07/14 13:11:19;;;;;;;4.90;4.40;;;;;;;;;;5052408;28;20211;-86
2023/07/14 13:13:49;;;;;;;6.28;4.18;;;;;;;;;;5052171;28;20195;-87
2023/07/14 13:16:16;;;;;;;4.93;4.45;;;;;;;;;;5051999;28;20230;-85
2023/07/14 13:18:54;;;;;;;5.40;4.90;;;;;;;;;;5052114;28;20464;-86
2023/07/14 13:21:35;;;;;;;5.05;4.45;;;;;;;;;;5052285;28;20242;-87
2023/07/14 13:24:09;;;;;;;5.53;4.53;;;;;;;;;;5052059;28;20195;-87
2023/07/14 13:26:46;;;;;;;18.13;4.75;;;;;;;;;;5054568;28;20777;-86
2023/07/14 13:29:16;;;;;;;6.80;4.78;;;;;;;;;;5053812;28;20218;-86
2023/07/14 13:31:43;;;;;;;6.75;5.25;;;;;;;;;;5055911;28;20601;-85
2023/07/14 13:34:19;;;;;;;5.25;4.80;;;;;;;;;;5052514;28;20662;-86
2023/07/14 13:36:47;;;;;;;9.38;5.05;;;;;;;;;;5051958;28;20249;-85
2023/07/14 13:39:24;;;;;;;5.80;5.20;;;;;;;;;;5053191;28;20238;-86
2023/07/14 13:41:51;;;;;;;4.65;4.28;;;;;;;;;;5053071;28;20738;-87
2023/07/14 13:44:33;;;;;;;10.93;5.28;;;;;;;;;;5052027;28;20682;-87
2023/07/14 13:47:02;;;;;;;6.03;5.50;;;;;;;;;;5049710;28;20657;-85
2023/07/14 13:49:32;;;;;;;6.25;5.45;;;;;;;;;;5053133;28;20195;-86
2023/07/14 13:52:01;;;;;;;6.43;4.95;;;;;;;;;;5052270;28;20199;-86
2023/07/14 13:54:29;;;;;;;6.03;5.07;;;;;;;;;;5052608;28;20237;-87
2023/07/14 13:56:56;;;;;;;5.03;4.63;;;;;;;;;;5052097;28;20235;-87
2023/07/14 13:59:23;;;;;;;6.80;4.70;;;;;;;;;;5053063;28;20197;-86
2023/07/14 14:01:50;;;;;;;5.47;4.93;;;;;;;;;;5052030;28;20203;-86
2023/07/14 14:04:17;;;;;;;7.93;5.22;;;;;;;;;;5052493;28;20198;-86
2023/07/14 14:06:47;;;;;;;15.45;7.05;;;;;;;;;;5051770;28;20624;-87
2023/07/14 14:09:24;;;;;;;9.15;5.68;;;;;;;;;;5051992;28;20269;-86
2023/07/14 14:11:52;;;;;;;6.45;4.93;;;;;;;;;;5051383;28;20245;-86
2023/07/14 14:14:20;;;;;;;12.45;5.38;;;;;;;;;;5051451;28;20253;-86
2023/07/14 14:16:48;;;;;;;9.88;6.03;;;;;;;;;;5051779;28;20258;-85
2023/07/14 14:19:19;;;;;;;6.88;4.95;;;;;;;;;;5052438;28;20195;-86
2023/07/14 14:21:47;;;;;;;10.00;5.40;;;;;;;;;;5052566;28;20603;-86
2023/07/14 14:24:14;;;;;;;7.93;6.10;;;;;;;;;;5052812;28;20198;-88
2023/07/14 14:26:42;;;;;;;9.10;5.70;;;;;;;;;;5051978;28;20203;-86
2023/07/14 14:29:10;;;;;;;11.13;6.13;;;;;;;;;;5051540;28;20202;-87
2023/07/14 14:31:37;;;;;;;11.98;6.32;;;;;;;;;;5051398;28;20698;-86
2023/07/14 14:34:11;;;;;;;9.35;6.35;;;;;;;;;;5052154;28;20206;-86
2023/07/14 14:36:38;;;;;;;8.77;6.57;;;;;;;;;;5052030;28;20685;-85
2023/07/14 14:39:13;;;;;;;9.55;6.05;;;;;;;;;;5054170;28;20262;-85
2023/07/14 14:41:45;;;;;;;8.57;6.53;;;;;;;;;;5052200;28;20198;-87
2023/07/14 14:44:17;;;;;;;7.55;5.88;;;;;;;;;;5052737;28;20234;-87
2023/07/14 14:46:44;;;;;;;8.45;6.50;;;;;;;;;;5052060;28;20187;-85
2023/07/14 14:49:13;;;;;;;9.68;6.05;;;;;;;;;;5051166;28;20293;-88
2023/07/14 14:51:41;;;;;;;10.43;5.70;;;;;;;;;;5050921;28;20195;-87
2023/07/14 14:54:10;;;;;;;7.50;5.80;;;;;;;;;;5052860;28;20342;-87
2023/07/14 14:56:40;;;;;;;10.13;5.18;;;;;;;;;;5061809;28;20234;-86
2023/07/14 14:59:16;;;;;;;8.30;5.90;;;;;;;;;;5060130;28;20235;-85
2023/07/14 15:01:48;;;;;;;10.50;6.15;;;;;;;;;;5055366;28;20187;-85
2023/07/14 15:04:17;;;;;;;9.70;5.78;;;;;;;;;;5065073;28;20258;-87
2023/07/14 15:06:45;;;;;;;8.52;6.07;;;;;;;;;;5059354;28;20301;-87